createdAt,value
2023-03-25T00:01:09.059Z,73.78
2023-03-25T00:03:43.017Z,73.84
2023-03-25T00:06:10.751Z,73.85
2023-03-25T00:08:37.463Z,73.97
2023-03-25T00:11:06.664Z,73.88
2023-03-25T00:13:34.050Z,74.00
2023-03-25T00:16:01.651Z,73.98
2023-03-25T00:18:33.418Z,74.00
2023-03-25T00:21:02.461Z,73.70
2023-03-25T00:23:30.608Z,74.03
2023-03-25T00:26:00.541Z,74.04
2023-03-25T00:28:34.411Z,72.61
2023-03-25T00:31:03.129Z,74.51
2023-03-25T00:33:30.089Z,74.65
2023-03-25T00:35:59.239Z,74.62
2023-03-25T00:38:33.303Z,74.68
2023-03-25T00:41:08.971Z,72.65
2023-03-25T00:43:35.305Z,74.54
2023-03-25T00:46:02.073Z,74.26
2023-03-25T00:48:28.453Z,74.64
2023-03-25T00:50:54.840Z,74.67
2023-03-25T00:53:21.277Z,74.92
2023-03-25T00:55:47.778Z,74.96
2023-03-25T00:58:14.239Z,74.83
2023-03-25T01:00:41.238Z,75.14
2023-03-25T01:03:09.615Z,74.79
2023-03-25T01:05:36.056Z,74.85
2023-03-25T01:08:02.418Z,74.65
2023-03-25T01:10:28.708Z,74.82
2023-03-25T01:12:55.019Z,74.59
2023-03-25T01:15:21.478Z,73.73
2023-03-25T01:17:47.870Z,74.38
2023-03-25T01:20:14.315Z,74.01
2023-03-25T01:22:40.781Z,74.26
2023-03-25T01:25:07.519Z,74.49
2023-03-25T01:27:33.955Z,74.36
2023-03-25T01:30:00.361Z,74.49
2023-03-25T01:32:29.026Z,74.30
2023-03-25T01:34:55.361Z,74.19
2023-03-25T01:37:22.603Z,74.17
2023-03-25T01:39:48.951Z,73.93
2023-03-25T01:42:15.365Z,73.92
2023-03-25T01:44:44.385Z,73.02
2023-03-25T01:47:10.704Z,74.12
2023-03-25T01:49:44.065Z,73.47
2023-03-25T01:52:21.284Z,72.16
2023-03-25T01:54:50.182Z,73.88
2023-03-25T01:57:20.488Z,72.24
2023-03-25T01:59:47.946Z,73.44
2023-03-25T02:02:17.662Z,73.85
2023-03-25T02:05:10.991Z,71.14
2023-03-25T02:07:42.414Z,73.46
2023-03-25T02:10:11.822Z,73.05
2023-03-25T02:12:38.184Z,73.13
2023-03-25T02:15:07.772Z,72.98
2023-03-25T02:18:01.683Z,68.98
2023-03-25T02:20:49.449Z,71.92
2023-03-25T02:23:28.143Z,73.06
2023-03-25T02:26:12.833Z,70.49
2023-03-25T02:28:55.956Z,70.69
2023-03-25T02:31:48.672Z,69.94
2023-03-25T02:34:56.700Z,69.39
2023-03-25T02:37:37.239Z,70.44
2023-03-25T02:40:07.683Z,70.55
2023-03-25T02:42:45.049Z,70.32
2023-03-25T02:45:30.152Z,69.65
2023-03-25T02:48:06.189Z,71.16
2023-03-25T02:50:45.583Z,70.97
2023-03-25T02:53:19.286Z,69.40
2023-03-25T02:55:47.906Z,71.83
2023-03-25T02:58:18.647Z,70.45
2023-03-25T03:00:46.348Z,71.60
2023-03-25T03:03:12.844Z,71.89
2023-03-25T03:05:44.316Z,70.68
2023-03-25T03:08:26.373Z,68.31
2023-03-25T03:13:44.384Z,70.12
2023-03-25T03:16:35.978Z,67.47
2023-03-25T03:19:05.528Z,69.65
2023-03-25T03:21:51.613Z,67.56
2023-03-25T03:24:38.592Z,69.99
2023-03-25T03:27:34.136Z,66.17
2023-03-25T03:30:40.416Z,66.57
2023-03-25T03:33:36.991Z,66.62
2023-03-25T03:36:16.136Z,67.31
2023-03-25T03:38:52.595Z,68.72
2023-03-25T03:41:24.177Z,68.43
2023-03-25T03:43:53.693Z,69.73
2023-03-25T03:46:28.857Z,69.46
2023-03-25T03:48:58.331Z,69.75
2023-03-25T03:51:33.903Z,69.72
2023-03-25T03:54:06.809Z,69.90
2023-03-25T03:56:46.564Z,68.99
2023-03-25T03:59:24.650Z,69.42
2023-03-25T04:01:55.801Z,69.33
2023-03-25T04:04:27.256Z,69.68
2023-03-25T04:07:15.350Z,67.61
2023-03-25T04:09:57.019Z,68.27
2023-03-25T04:12:29.352Z,69.57
2023-03-25T04:14:56.845Z,70.50
2023-03-25T04:17:24.253Z,71.37
2023-03-25T04:19:53.606Z,71.44
2023-03-25T04:22:21.874Z,71.51
2023-03-25T04:24:49.698Z,71.38
2023-03-25T04:27:17.183Z,71.60
2023-03-25T04:29:47.826Z,71.86
2023-03-25T04:32:15.265Z,72.00
2023-03-25T04:34:42.290Z,72.03
2023-03-25T04:37:08.940Z,72.26
2023-03-25T04:39:35.581Z,72.71
2023-03-25T04:42:03.573Z,72.45
2023-03-25T04:44:33.796Z,72.60
2023-03-25T04:47:02.330Z,72.73
2023-03-25T04:49:29.183Z,72.44
2023-03-25T04:51:56.978Z,72.88
2023-03-25T04:54:24.075Z,72.93
2023-03-25T04:56:51.900Z,72.92
2023-03-25T04:59:19.960Z,72.94
2023-03-25T05:01:47.327Z,72.11
2023-03-25T05:04:17.651Z,72.42
2023-03-25T05:06:50.542Z,71.84
2023-03-25T05:09:19.805Z,72.32
2023-03-25T05:11:47.044Z,72.45
2023-03-25T05:14:16.132Z,72.85
2023-03-25T05:16:43.792Z,73.38
2023-03-25T05:19:10.495Z,73.49
2023-03-25T05:21:39.274Z,73.60
2023-03-25T05:24:10.229Z,74.04
2023-03-25T05:26:39.754Z,74.21
2023-03-25T05:29:15.914Z,73.57
2023-03-25T05:31:48.951Z,74.42
2023-03-25T05:34:17.226Z,74.90
2023-03-25T05:36:44.112Z,75.15
2023-03-25T05:39:11.058Z,75.21
2023-03-25T05:41:40.857Z,75.23
2023-03-25T05:44:09.512Z,75.36
2023-03-25T05:46:36.098Z,75.48
2023-03-25T05:49:03.089Z,75.64
2023-03-25T05:51:38.572Z,75.90
2023-03-25T05:54:11.001Z,75.92
2023-03-25T05:56:38.281Z,72.67
2023-03-25T05:59:04.985Z,75.71
2023-03-25T06:01:34.180Z,76.05
2023-03-25T06:04:02.387Z,75.37
2023-03-25T06:06:30.514Z,75.60
2023-03-25T06:08:57.033Z,75.66
2023-03-25T06:11:23.616Z,75.43
2023-03-25T06:13:50.305Z,75.45
2023-03-25T06:16:29.953Z,73.32
2023-03-25T06:18:59.708Z,75.41
2023-03-25T06:21:32.962Z,73.48
2023-03-25T06:24:01.714Z,74.78
2023-03-25T06:26:28.362Z,75.18
2023-03-25T06:28:55.285Z,74.95
2023-03-25T06:31:26.662Z,75.19
2023-03-25T06:33:54.921Z,74.84
2023-03-25T06:36:21.619Z,75.25
2023-03-25T06:38:49.522Z,74.96
2023-03-25T06:41:20.306Z,74.66
2023-03-25T06:43:47.993Z,74.66
2023-03-25T06:46:14.809Z,74.61
2023-03-25T06:48:41.371Z,74.18
2023-03-25T06:51:08.217Z,74.34
2023-03-25T06:53:34.834Z,74.34
2023-03-25T06:56:01.480Z,74.25
2023-03-25T06:58:34.771Z,73.98
2023-03-25T07:01:07.289Z,74.31
2023-03-25T07:03:38.907Z,74.15
2023-03-25T07:06:06.458Z,74.10
2023-03-25T07:08:33.717Z,73.90
2023-03-25T07:11:05.780Z,73.53
2023-03-25T07:13:32.403Z,73.41
2023-03-25T07:15:59.556Z,73.10
2023-03-25T07:18:26.817Z,73.09
2023-03-25T07:20:53.864Z,72.97
2023-03-25T07:23:20.657Z,73.03
2023-03-25T07:25:47.351Z,71.96
2023-03-25T07:28:14.204Z,72.43
2023-03-25T07:30:40.839Z,72.85
2023-03-25T07:33:07.559Z,72.70
2023-03-25T07:35:34.155Z,72.78
2023-03-25T07:38:01.054Z,73.04
2023-03-25T07:40:27.693Z,72.60
2023-03-25T07:42:54.277Z,72.03
2023-03-25T07:45:20.876Z,72.87
2023-03-25T07:47:50.438Z,72.85
2023-03-25T07:50:18.489Z,72.74
2023-03-25T07:52:46.064Z,73.23
2023-03-25T07:55:12.810Z,72.48
2023-03-25T07:57:41.666Z,71.66
2023-03-25T08:00:10.884Z,71.79
2023-03-25T08:02:37.645Z,72.06
2023-03-25T08:05:05.818Z,70.87
2023-03-25T08:07:33.173Z,71.42
2023-03-25T08:09:59.722Z,71.18
2023-03-25T08:12:26.423Z,71.37
2023-03-25T08:14:52.893Z,71.54
2023-03-25T08:17:19.336Z,71.60
2023-03-25T08:19:46.209Z,70.94
2023-03-25T08:22:12.729Z,71.42
2023-03-25T08:24:39.221Z,71.74
2023-03-25T08:27:14.092Z,71.69
2023-03-25T08:29:42.994Z,71.71
2023-03-25T08:32:09.525Z,71.51
2023-03-25T08:34:39.828Z,71.14
2023-03-25T08:37:11.222Z,70.32
2023-03-25T08:39:40.184Z,68.98
2023-03-25T08:42:08.395Z,69.69
2023-03-25T08:44:35.666Z,70.76
2023-03-25T08:47:02.276Z,70.69
2023-03-25T08:49:28.938Z,70.45
2023-03-25T08:51:57.904Z,70.93
2023-03-25T08:54:29.028Z,68.32
2023-03-25T08:56:55.684Z,70.09
2023-03-25T08:59:22.467Z,70.91
2023-03-25T09:01:49.191Z,69.69
2023-03-25T09:04:16.111Z,68.85
2023-03-25T09:06:47.959Z,68.51
2023-03-25T09:09:29.912Z,68.06
2023-03-25T09:14:30.785Z,68.23
2023-03-25T09:16:57.093Z,68.21
2023-03-25T09:19:23.593Z,67.53
2023-03-25T09:21:50.143Z,68.13
2023-03-25T09:24:16.456Z,68.01
2023-03-25T09:26:42.880Z,67.03
2023-03-25T09:29:09.444Z,67.50
2023-03-25T09:31:35.805Z,67.22
2023-03-25T09:34:02.248Z,67.74
2023-03-25T09:36:28.553Z,67.52
2023-03-25T09:38:54.881Z,66.57
2023-03-25T09:41:23.851Z,67.53
2023-03-25T09:44:02.922Z,64.59
2023-03-25T09:46:29.402Z,67.15
2023-03-25T09:48:57.128Z,67.69
2023-03-25T09:51:28.532Z,66.61
2023-03-25T09:54:08.872Z,63.62
2023-03-25T09:56:41.902Z,65.08
2023-03-25T09:59:15.960Z,66.30
2023-03-25T10:02:12.668Z,64.95
2023-03-25T10:05:04.037Z,61.60
2023-03-25T10:07:47.938Z,63.33
2023-03-25T10:10:33.081Z,64.32
2023-03-25T10:13:51.914Z,64.47
2023-03-25T10:16:47.986Z,64.74
2023-03-25T10:19:25.105Z,63.84
2023-03-25T10:22:13.087Z,67.08
2023-03-25T10:24:46.984Z,68.70
2023-03-25T10:27:21.093Z,65.89
2023-03-25T10:29:53.086Z,67.04
2023-03-25T10:32:35.896Z,64.24
2023-03-25T10:35:06.541Z,67.30
2023-03-25T10:37:36.451Z,67.75
2023-03-25T10:40:16.575Z,63.73
2023-03-25T10:43:16.899Z,62.52
2023-03-25T10:45:45.743Z,67.25
2023-03-25T10:48:25.437Z,67.63
2023-03-25T10:51:10.091Z,61.57
2023-03-25T10:53:37.807Z,66.86
2023-03-25T10:56:08.138Z,65.60
2023-03-25T10:58:38.368Z,66.05
2023-03-25T11:01:17.644Z,61.41
2023-03-25T11:03:46.115Z,65.42
2023-03-25T11:06:29.560Z,63.54
2023-03-25T11:09:34.158Z,63.39
2023-03-25T11:12:02.432Z,66.66
2023-03-25T11:14:30.382Z,66.03
2023-03-25T11:17:00.353Z,66.00
2023-03-25T11:19:31.374Z,65.43
2023-03-25T11:22:07.512Z,66.49
2023-03-25T11:24:40.196Z,67.37
2023-03-25T11:27:08.748Z,67.60
2023-03-25T11:29:37.182Z,67.96
2023-03-25T11:32:12.969Z,67.92
2023-03-25T11:34:41.972Z,67.89
2023-03-25T11:37:20.230Z,67.94
2023-03-25T11:39:55.576Z,68.40
2023-03-25T11:42:42.280Z,68.86
2023-03-25T11:45:35.852Z,68.93
2023-03-25T11:48:11.354Z,68.43
2023-03-25T11:50:38.153Z,70.40
2023-03-25T11:53:06.120Z,71.26
2023-03-25T11:55:41.453Z,70.53
2023-03-25T11:58:18.833Z,70.91
2023-03-25T12:00:59.770Z,70.41
2023-03-25T12:03:27.854Z,71.10
2023-03-25T12:06:15.957Z,70.59
2023-03-25T12:08:50.298Z,70.72
2023-03-25T12:11:23.816Z,71.33
2023-03-25T12:14:19.785Z,70.67
2023-03-25T12:17:23.132Z,70.59
2023-03-25T12:19:53.885Z,71.77
2023-03-25T12:22:38.527Z,71.97
2023-03-25T12:25:17.152Z,72.47
2023-03-25T12:27:55.393Z,72.66
2023-03-25T12:30:33.169Z,73.02
2023-03-25T12:33:21.949Z,72.65
2023-03-25T12:36:01.845Z,72.57
2023-03-25T12:39:14.819Z,72.78
2023-03-25T12:42:12.831Z,73.11
2023-03-25T12:45:06.479Z,73.34
2023-03-25T12:47:41.963Z,77.53
2023-03-25T12:50:16.392Z,81.53
2023-03-25T12:52:54.771Z,79.72
2023-03-25T12:55:36.400Z,75.21
2023-03-25T12:58:18.123Z,75.29
2023-03-25T13:01:01.244Z,75.95
2023-03-25T13:03:47.684Z,69.14
2023-03-25T13:06:53.911Z,67.39
2023-03-25T13:09:29.616Z,67.91
2023-03-25T13:12:04.597Z,69.74
2023-03-25T13:14:36.779Z,69.64
2023-03-25T13:17:10.648Z,69.55
2023-03-25T13:19:41.130Z,70.24
2023-03-25T13:22:19.776Z,70.41
2023-03-25T13:24:51.309Z,70.55
2023-03-25T13:27:18.443Z,71.56
2023-03-25T13:29:57.556Z,71.18
2023-03-25T13:32:29.860Z,72.51
2023-03-25T13:35:08.953Z,72.95
2023-03-25T13:37:38.672Z,76.47
2023-03-25T13:40:11.546Z,78.70
2023-03-25T13:42:58.271Z,78.49
2023-03-25T13:45:27.333Z,77.38
2023-03-25T13:48:16.772Z,71.83
2023-03-25T13:50:43.198Z,73.71
2023-03-25T13:53:17.169Z,70.66
2023-03-25T13:56:11.884Z,71.27
2023-03-25T13:59:25.992Z,69.03
2023-03-25T14:02:07.658Z,69.71
2023-03-25T14:04:58.578Z,68.88
2023-03-25T14:07:34.089Z,69.92
2023-03-25T14:10:13.769Z,70.24
2023-03-25T14:12:44.854Z,69.77
2023-03-25T14:15:21.654Z,70.08
2023-03-25T14:17:50.818Z,71.53
2023-03-25T14:20:24.339Z,71.53
2023-03-25T14:22:57.282Z,71.10
2023-03-25T14:25:37.778Z,70.23
2023-03-25T14:28:05.078Z,73.41
2023-03-25T14:30:32.726Z,72.72
2023-03-25T14:33:03.015Z,72.26
2023-03-25T14:35:41.674Z,72.22
2023-03-25T14:38:08.340Z,74.16
2023-03-25T14:40:59.652Z,71.92
2023-03-25T14:43:48.513Z,71.95
2023-03-25T14:46:20.336Z,74.43
2023-03-25T14:48:52.675Z,75.47
2023-03-25T14:51:43.695Z,65.08
2023-03-25T14:54:15.924Z,70.49
2023-03-25T14:57:05.347Z,71.34
2023-03-25T14:59:39.365Z,69.05
2023-03-25T15:02:16.139Z,61.07
2023-03-25T15:04:44.438Z,65.01
2023-03-25T15:07:16.250Z,62.82
2023-03-25T15:09:55.892Z,60.90
2023-03-25T15:19:03.484Z,64.06
2023-03-25T15:31:43.713Z,67.71
2023-03-25T15:34:34.413Z,63.31
2023-03-25T15:37:45.020Z,60.58
2023-03-25T15:40:33.508Z,60.89
2023-03-25T15:43:18.618Z,66.02
2023-03-25T15:46:03.880Z,64.48
2023-03-25T15:49:01.547Z,62.02
2023-03-25T15:51:41.284Z,61.08
2023-03-25T15:54:23.033Z,61.67
2023-03-25T15:56:54.222Z,65.05
2023-03-25T15:59:30.520Z,63.21
2023-03-25T16:02:00.820Z,63.88
2023-03-25T16:04:39.039Z,64.04
2023-03-25T16:07:08.977Z,65.73
2023-03-25T16:09:41.676Z,64.13
2023-03-25T16:12:10.536Z,66.46
2023-03-25T16:14:39.356Z,67.33
2023-03-25T16:17:07.839Z,66.88
2023-03-25T16:19:44.539Z,66.16
2023-03-25T16:22:23.968Z,67.99
2023-03-25T16:24:51.579Z,68.88
2023-03-25T16:27:25.533Z,69.81
2023-03-25T16:29:53.992Z,70.21
2023-03-25T16:32:24.215Z,70.99
2023-03-25T16:34:53.881Z,71.58
2023-03-25T16:37:22.060Z,71.84
2023-03-25T16:39:53.443Z,72.23
2023-03-25T16:42:24.433Z,73.18
2023-03-25T16:44:51.253Z,73.56
2023-03-25T16:47:18.705Z,73.76
2023-03-25T16:49:48.476Z,73.91
2023-03-25T16:52:19.619Z,74.02
2023-03-25T16:55:14.880Z,71.89
2023-03-25T16:57:41.477Z,73.43
2023-03-25T17:00:18.453Z,72.81
2023-03-25T17:02:48.529Z,73.73
2023-03-25T17:05:24.639Z,73.50
2023-03-25T17:07:59.114Z,73.96
2023-03-25T17:10:28.656Z,74.56
2023-03-25T17:13:02.559Z,74.47
2023-03-25T17:15:34.573Z,74.77
2023-03-25T17:18:06.051Z,75.08
2023-03-25T17:20:45.008Z,73.50
2023-03-25T17:23:18.041Z,74.54
2023-03-25T17:25:53.918Z,73.23
2023-03-25T17:28:31.020Z,74.02
2023-03-25T17:30:57.868Z,74.64
2023-03-25T17:33:34.138Z,73.91
2023-03-25T17:36:03.360Z,74.88
2023-03-25T17:38:36.457Z,74.76
2023-03-25T17:41:06.418Z,73.22
2023-03-25T17:43:36.976Z,74.77
2023-03-25T17:46:06.072Z,74.52
2023-03-25T17:48:32.712Z,75.07
2023-03-25T17:51:00.472Z,75.09
2023-03-25T17:53:27.336Z,75.24
2023-03-25T17:55:54.824Z,75.54
2023-03-25T17:58:22.669Z,75.50
2023-03-25T18:00:50.935Z,75.41
2023-03-25T18:03:22.873Z,75.18
2023-03-25T18:05:56.010Z,75.14
2023-03-25T18:08:24.792Z,75.47
2023-03-25T18:10:53.423Z,75.41
2023-03-25T18:13:21.895Z,75.71
2023-03-25T18:15:51.533Z,75.76
2023-03-25T18:18:24.200Z,75.43
2023-03-25T18:20:52.407Z,75.44
2023-03-25T18:23:19.331Z,75.48
2023-03-25T18:25:46.388Z,75.37
2023-03-25T18:28:14.149Z,75.01
2023-03-25T18:30:46.502Z,73.37
2023-03-25T18:33:15.604Z,75.25
2023-03-25T18:35:43.651Z,75.42
2023-03-25T18:38:24.384Z,74.17
2023-03-25T18:40:52.526Z,75.41
2023-03-25T18:43:20.031Z,75.60
2023-03-25T18:45:47.261Z,75.27
2023-03-25T18:48:17.689Z,74.83
2023-03-25T18:50:50.290Z,74.89
2023-03-25T18:53:17.049Z,74.77
2023-03-25T18:55:45.907Z,75.09
2023-03-25T18:58:23.889Z,74.20
2023-03-25T19:00:52.352Z,75.20
2023-03-25T19:03:20.800Z,75.38
2023-03-25T19:05:47.739Z,75.11
2023-03-25T19:08:19.402Z,74.95
2023-03-25T19:10:47.103Z,75.15
2023-03-25T19:13:14.259Z,75.11
2023-03-25T19:15:41.083Z,75.08
2023-03-25T19:18:07.667Z,75.26
2023-03-25T19:20:35.923Z,75.11
2023-03-25T19:23:04.250Z,74.73
2023-03-25T19:25:30.947Z,75.08
2023-03-25T19:27:57.524Z,75.22
2023-03-25T19:30:25.273Z,74.76
2023-03-25T19:32:59.333Z,74.71
2023-03-25T19:35:26.534Z,75.25
2023-03-25T19:37:55.682Z,75.36
2023-03-25T19:40:24.804Z,75.06
2023-03-25T19:42:54.923Z,75.12
2023-03-25T19:45:21.788Z,75.30
2023-03-25T19:47:48.906Z,75.40
2023-03-25T19:50:20.970Z,75.03
2023-03-25T19:52:49.455Z,74.96
2023-03-25T19:55:17.636Z,75.13
2023-03-25T19:57:45.784Z,75.29
2023-03-25T20:00:15.840Z,74.61
2023-03-25T20:02:48.283Z,74.45
2023-03-25T20:05:16.776Z,74.79
2023-03-25T20:07:45.431Z,74.81
2023-03-25T20:10:20.027Z,74.66
2023-03-25T20:12:48.951Z,74.89
2023-03-25T20:15:17.354Z,75.22
2023-03-25T20:17:44.200Z,75.47
2023-03-25T20:20:13.208Z,75.39
2023-03-25T20:22:40.834Z,75.41
2023-03-25T20:25:09.503Z,75.32
2023-03-25T20:27:36.208Z,75.54
2023-03-25T20:30:05.670Z,75.43
2023-03-25T20:32:40.450Z,75.61
2023-03-25T20:35:09.034Z,75.50
2023-03-25T20:37:36.967Z,75.63
2023-03-25T20:40:06.288Z,75.53
2023-03-25T20:42:32.788Z,75.53
2023-03-25T20:44:59.289Z,75.43
2023-03-25T20:47:28.174Z,75.42
2023-03-25T20:49:54.710Z,75.15
2023-03-25T20:52:21.599Z,75.24
2023-03-25T20:54:49.434Z,75.43
2023-03-25T20:57:16.514Z,75.54
2023-03-25T20:59:43.139Z,75.54
2023-03-25T21:02:10.960Z,75.68
2023-03-25T21:04:38.258Z,75.62
2023-03-25T21:07:05.045Z,75.62
2023-03-25T21:09:31.738Z,75.77
2023-03-25T21:11:58.194Z,75.79
2023-03-25T21:17:12.108Z,76.17
2023-03-25T21:19:38.504Z,75.67
2023-03-25T21:22:04.881Z,76.16
2023-03-25T21:24:34.285Z,76.16
2023-03-25T21:27:00.690Z,75.98
2023-03-25T21:29:27.348Z,76.34
2023-03-25T21:31:53.931Z,75.98
2023-03-25T21:34:21.864Z,76.13
2023-03-25T21:36:48.599Z,76.31
2023-03-25T21:39:15.006Z,76.22
2023-03-25T21:41:41.516Z,76.14
2023-03-25T21:44:08.023Z,76.09
2023-03-25T21:46:36.639Z,75.97
2023-03-25T21:49:03.818Z,76.13
2023-03-25T21:51:30.824Z,76.03
2023-03-25T21:53:58.490Z,76.12
2023-03-25T21:56:27.218Z,76.23
2023-03-25T21:58:53.802Z,76.38
2023-03-25T22:01:28.412Z,75.86
2023-03-25T22:04:00.822Z,75.57
2023-03-25T22:06:29.817Z,75.99
2023-03-25T22:09:03.612Z,76.49
2023-03-25T22:11:30.332Z,76.37
2023-03-25T22:13:57.296Z,76.52
2023-03-25T22:16:24.481Z,76.41
2023-03-25T22:18:51.585Z,76.42
2023-03-25T22:21:20.837Z,76.30
2023-03-25T22:23:49.143Z,76.12
2023-03-25T22:26:17.483Z,76.07
2023-03-25T22:28:44.679Z,75.75
2023-03-25T22:31:13.857Z,75.26
2023-03-25T22:33:41.019Z,75.86
2023-03-25T22:36:12.635Z,75.42
2023-03-25T22:38:44.424Z,76.34
2023-03-25T22:41:12.677Z,76.59
2023-03-25T22:43:39.473Z,76.44
2023-03-25T22:46:07.224Z,76.25
2023-03-25T22:48:34.714Z,76.36
2023-03-25T22:51:01.275Z,76.19
2023-03-25T22:53:28.025Z,76.23
2023-03-25T22:55:56.638Z,75.97
2023-03-25T22:58:26.020Z,76.22
2023-03-25T23:00:53.840Z,76.43
2023-03-25T23:03:22.822Z,76.41
2023-03-25T23:06:05.816Z,75.27
2023-03-25T23:08:35.669Z,75.84
2023-03-25T23:11:14.469Z,75.31
2023-03-25T23:13:45.411Z,76.04
2023-03-25T23:16:14.464Z,76.21
2023-03-25T23:18:42.003Z,76.50
2023-03-25T23:21:11.999Z,75.70
2023-03-25T23:23:38.654Z,76.23
2023-03-25T23:26:26.345Z,75.83
2023-03-25T23:28:54.615Z,75.98
2023-03-25T23:31:28.110Z,75.41
2023-03-25T23:33:58.258Z,75.90
2023-03-25T23:36:26.267Z,76.11
2023-03-25T23:38:53.513Z,76.18
2023-03-25T23:41:25.531Z,76.15
2023-03-25T23:43:53.657Z,75.99
2023-03-25T23:46:21.353Z,76.22
2023-03-25T23:48:48.596Z,76.31
2023-03-25T23:51:18.052Z,76.02
2023-03-25T23:53:47.046Z,75.85
2023-03-25T23:56:15.737Z,75.91
2023-03-25T23:58:42.500Z,76.04
